createdAt,value
2018-05-29T00:00:22.458Z,17.50
2018-05-29T00:02:48.787Z,17.50
2018-05-29T00:05:15.116Z,17.50
2018-05-29T00:07:42.115Z,17.40
2018-05-29T00:10:09.178Z,17.50
2018-05-29T00:12:36.259Z,17.50
2018-05-29T00:15:02.478Z,17.50
2018-05-29T00:17:29.479Z,17.40
2018-05-29T00:19:55.764Z,17.40
2018-05-29T00:22:22.021Z,17.40
2018-05-29T00:24:49.030Z,17.30
2018-05-29T00:27:15.282Z,17.20
2018-05-29T00:29:41.588Z,17.30
2018-05-29T00:32:07.828Z,17.40
2018-05-29T00:34:34.164Z,17.50
2018-05-29T00:37:01.152Z,17.50
2018-05-29T00:39:28.199Z,17.40
2018-05-29T00:41:54.624Z,17.40
2018-05-29T00:44:21.620Z,17.10
2018-05-29T00:46:47.865Z,17.00
2018-05-29T00:49:14.252Z,16.90
2018-05-29T00:51:40.448Z,17.00
2018-05-29T00:54:06.778Z,16.90
2018-05-29T00:56:33.075Z,16.90
2018-05-29T00:58:59.302Z,16.80
2018-05-29T01:01:27.095Z,16.70
2018-05-29T01:03:54.148Z,16.70
2018-05-29T01:06:20.405Z,16.70
2018-05-29T01:08:47.419Z,16.50
2018-05-29T01:11:13.652Z,16.50
2018-05-29T01:13:40.604Z,16.50
2018-05-29T01:16:06.851Z,16.50
2018-05-29T01:18:33.149Z,16.50
2018-05-29T01:21:00.211Z,16.50
2018-05-29T01:23:27.205Z,16.40
2018-05-29T01:25:53.842Z,16.40
2018-05-29T01:28:20.107Z,16.40
2018-05-29T01:30:46.341Z,16.30
2018-05-29T01:33:12.640Z,16.30
2018-05-29T01:35:39.702Z,16.30
2018-05-29T01:38:06.670Z,16.40
2018-05-29T01:40:32.926Z,16.30
2018-05-29T01:42:59.131Z,16.30
2018-05-29T01:45:25.391Z,16.30
2018-05-29T01:47:52.376Z,16.20
2018-05-29T01:50:18.676Z,16.20
2018-05-29T01:52:44.908Z,16.20
2018-05-29T01:55:11.197Z,16.30
2018-05-29T01:57:37.437Z,16.40
2018-05-29T02:00:03.698Z,16.30
2018-05-29T02:02:30.021Z,16.30
2018-05-29T02:04:56.286Z,16.20
2018-05-29T02:07:23.349Z,16.20
2018-05-29T02:09:49.607Z,16.10
2018-05-29T02:12:16.407Z,16.20
2018-05-29T02:14:43.454Z,16.00
2018-05-29T02:17:10.498Z,16.10
2018-05-29T02:19:36.842Z,16.10
2018-05-29T02:22:03.185Z,16.00
2018-05-29T02:24:29.502Z,16.20
2018-05-29T02:26:55.764Z,16.20
2018-05-29T02:29:22.051Z,16.10
2018-05-29T02:31:48.270Z,16.20
2018-05-29T02:34:15.297Z,16.20
2018-05-29T02:36:41.612Z,16.20
2018-05-29T02:39:07.854Z,16.10
2018-05-29T02:41:34.063Z,16.00
2018-05-29T02:44:01.075Z,15.80
2018-05-29T02:46:27.367Z,15.70
2018-05-29T02:48:53.713Z,15.70
2018-05-29T02:51:19.954Z,15.60
2018-05-29T02:53:46.536Z,15.50
2018-05-29T02:56:12.776Z,15.50
2018-05-29T02:58:39.056Z,15.50
2018-05-29T03:01:05.337Z,15.50
2018-05-29T03:03:31.586Z,15.50
2018-05-29T03:05:57.860Z,15.50
2018-05-29T03:08:24.147Z,15.50
2018-05-29T03:10:50.373Z,15.60
2018-05-29T03:13:16.569Z,15.60
2018-05-29T03:15:42.872Z,15.50
2018-05-29T03:18:09.855Z,15.60
2018-05-29T03:20:36.726Z,15.60
2018-05-29T03:23:03.158Z,15.60
2018-05-29T03:25:29.621Z,15.60
2018-05-29T03:27:55.892Z,15.50
2018-05-29T03:30:22.728Z,15.60
2018-05-29T03:32:48.976Z,15.60
2018-05-29T03:35:15.256Z,15.60
2018-05-29T03:37:42.287Z,15.60
2018-05-29T03:40:08.525Z,15.60
2018-05-29T03:42:34.839Z,15.60
2018-05-29T03:45:01.124Z,15.60
2018-05-29T03:47:27.408Z,15.60
2018-05-29T03:49:53.734Z,15.60
2018-05-29T03:52:19.982Z,15.60
2018-05-29T03:54:46.295Z,15.60
2018-05-29T03:57:13.258Z,15.70
2018-05-29T03:59:40.211Z,15.80
2018-05-29T04:02:07.244Z,15.90
2018-05-29T04:04:33.526Z,15.90
2018-05-29T04:07:00.552Z,16.00
2018-05-29T04:09:27.608Z,16.00
2018-05-29T04:11:54.614Z,16.00
2018-05-29T04:14:20.851Z,16.00
2018-05-29T04:16:47.888Z,16.10
2018-05-29T04:19:14.141Z,16.10
2018-05-29T04:21:41.145Z,16.20
2018-05-29T04:24:08.191Z,16.30
2018-05-29T04:26:34.410Z,16.30
2018-05-29T04:29:01.465Z,16.40
2018-05-29T04:31:28.427Z,16.60
2018-05-29T04:33:55.436Z,16.70
2018-05-29T04:36:21.727Z,16.70
2018-05-29T04:38:48.723Z,16.80
2018-05-29T04:41:15.786Z,16.70
2018-05-29T04:43:42.066Z,16.70
2018-05-29T04:46:08.286Z,16.70
2018-05-29T04:48:34.479Z,16.80
2018-05-29T04:51:00.862Z,16.80
2018-05-29T04:53:27.205Z,16.70
2018-05-29T04:55:53.476Z,16.80
2018-05-29T04:58:19.749Z,16.90
2018-05-29T05:00:46.198Z,17.00
2018-05-29T05:03:12.479Z,17.10
2018-05-29T05:05:38.812Z,17.10
2018-05-29T05:08:05.101Z,17.30
2018-05-29T05:10:32.137Z,17.40
2018-05-29T05:12:58.437Z,17.40
2018-05-29T05:15:24.722Z,17.50
2018-05-29T05:17:51.021Z,17.50
2018-05-29T05:20:17.297Z,17.60
2018-05-29T05:22:43.554Z,17.70
2018-05-29T05:25:09.799Z,17.80
2018-05-29T05:27:36.102Z,17.90
2018-05-29T05:30:02.449Z,18.00
2018-05-29T05:32:28.731Z,18.10
2018-05-29T05:34:54.949Z,18.20
2018-05-29T05:37:21.245Z,18.30
2018-05-29T05:39:47.571Z,18.40
2018-05-29T05:42:14.630Z,18.70
2018-05-29T05:44:41.655Z,18.90
2018-05-29T05:47:07.887Z,18.90
2018-05-29T05:49:34.168Z,19.00
2018-05-29T05:52:01.182Z,19.30
2018-05-29T05:54:27.503Z,19.30
2018-05-29T05:56:53.747Z,19.50
2018-05-29T05:59:20.012Z,19.70
2018-05-29T06:01:46.268Z,19.80
2018-05-29T06:04:13.276Z,20.10
2018-05-29T06:06:39.526Z,20.10
2018-05-29T06:09:05.810Z,20.30
2018-05-29T06:11:32.084Z,20.40
2018-05-29T06:13:59.214Z,20.50
2018-05-29T06:16:25.568Z,20.40
2018-05-29T06:18:51.824Z,20.60
2018-05-29T06:21:18.851Z,22.60
2018-05-29T06:23:45.910Z,23.80
2018-05-29T06:26:12.261Z,23.80
2018-05-29T06:28:38.514Z,25.00
2018-05-29T06:31:05.389Z,25.80
2018-05-29T06:33:32.417Z,27.60
2018-05-29T06:35:58.773Z,27.60
2018-05-29T06:38:25.661Z,28.10
2018-05-29T06:40:51.944Z,28.20
2018-05-29T06:43:18.265Z,28.70
2018-05-29T06:45:44.531Z,28.70
2018-05-29T06:48:11.562Z,28.80
2018-05-29T06:50:37.828Z,29.00
2018-05-29T06:53:04.152Z,29.20
2018-05-29T06:55:30.355Z,29.40
2018-05-29T06:57:57.376Z,30.00
2018-05-29T07:00:23.681Z,29.90
2018-05-29T07:02:49.940Z,30.10
2018-05-29T07:05:16.230Z,30.20
2018-05-29T07:07:43.227Z,30.40
2018-05-29T07:10:09.617Z,30.40
2018-05-29T07:12:35.877Z,30.00
2018-05-29T07:15:02.184Z,30.00
2018-05-29T07:17:28.585Z,30.10
2018-05-29T07:19:55.638Z,30.60
2018-05-29T07:22:21.905Z,30.60
2018-05-29T07:24:48.220Z,30.60
2018-05-29T07:27:15.265Z,30.60
2018-05-29T07:29:42.306Z,30.60
2018-05-29T07:32:09.596Z,30.30
2018-05-29T07:34:35.946Z,30.30
2018-05-29T07:37:02.290Z,30.40
2018-05-29T07:39:29.333Z,30.30
2018-05-29T07:41:55.596Z,30.20
2018-05-29T07:44:22.602Z,30.10
2018-05-29T07:46:48.867Z,30.10
2018-05-29T07:49:15.493Z,30.20
2018-05-29T07:51:41.819Z,30.10
2018-05-29T07:54:08.086Z,30.00
2018-05-29T07:56:35.108Z,30.00
2018-05-29T07:59:01.412Z,30.00
2018-05-29T08:01:27.746Z,29.90
2018-05-29T08:03:54.024Z,29.90
2018-05-29T08:06:21.224Z,30.20
2018-05-29T08:08:47.500Z,30.20
2018-05-29T08:11:13.793Z,30.20
2018-05-29T08:13:40.085Z,30.10
2018-05-29T08:16:06.358Z,30.10
2018-05-29T08:18:32.729Z,30.30
2018-05-29T08:20:58.971Z,30.20
2018-05-29T08:23:25.318Z,30.30
2018-05-29T08:25:52.356Z,30.40
2018-05-29T08:28:18.626Z,30.40
2018-05-29T08:30:44.896Z,30.50
2018-05-29T08:33:11.182Z,30.50
2018-05-29T08:35:37.461Z,30.40
2018-05-29T08:38:04.486Z,30.40
2018-05-29T08:40:30.740Z,30.50
2018-05-29T08:42:57.566Z,30.60
2018-05-29T08:45:24.621Z,30.70
2018-05-29T08:47:50.906Z,30.70
2018-05-29T08:50:17.162Z,30.90
2018-05-29T08:52:43.503Z,31.00
2018-05-29T08:55:09.759Z,31.20
2018-05-29T08:57:35.996Z,31.20
2018-05-29T09:00:02.422Z,31.10
2018-05-29T09:02:30.892Z,31.20
2018-05-29T09:04:57.205Z,31.20
2018-05-29T09:07:24.192Z,31.40
2018-05-29T09:09:50.441Z,31.40
2018-05-29T09:12:16.695Z,31.40
2018-05-29T09:14:43.047Z,31.50
2018-05-29T09:17:09.457Z,31.30
2018-05-29T09:19:36.465Z,30.40
2018-05-29T09:22:02.775Z,30.40
2018-05-29T09:24:29.125Z,30.00
2018-05-29T09:26:55.416Z,29.90
2018-05-29T09:29:21.710Z,29.80
2018-05-29T09:31:47.998Z,29.80
2018-05-29T09:34:14.321Z,29.80
2018-05-29T09:36:41.370Z,29.80
2018-05-29T09:39:07.632Z,29.80
2018-05-29T09:41:33.956Z,29.70
2018-05-29T09:44:00.229Z,29.80
2018-05-29T09:46:26.486Z,29.80
2018-05-29T09:48:53.598Z,30.00
2018-05-29T09:51:19.922Z,30.00
2018-05-29T09:53:46.227Z,30.10
2018-05-29T09:56:13.219Z,30.20
2018-05-29T09:58:39.553Z,30.20
2018-05-29T10:01:06.723Z,30.20
2018-05-29T10:03:32.990Z,30.10
2018-05-29T10:05:59.306Z,30.20
2018-05-29T10:08:25.564Z,30.30
2018-05-29T10:10:51.862Z,30.30
2018-05-29T10:13:18.292Z,30.20
2018-05-29T10:15:44.508Z,30.40
2018-05-29T10:18:10.807Z,30.50
2018-05-29T10:20:37.800Z,30.40
2018-05-29T10:23:04.182Z,30.40
2018-05-29T10:25:30.475Z,30.50
2018-05-29T10:27:56.797Z,30.50
2018-05-29T10:30:23.110Z,30.60
2018-05-29T10:32:50.158Z,30.50
2018-05-29T10:35:16.461Z,30.50
2018-05-29T10:37:42.722Z,30.50
2018-05-29T10:40:09.027Z,30.40
2018-05-29T10:42:35.357Z,30.60
2018-05-29T10:45:02.419Z,30.60
2018-05-29T10:47:29.515Z,30.60
2018-05-29T10:49:55.782Z,30.60
2018-05-29T10:52:22.073Z,30.80
2018-05-29T10:54:49.146Z,30.90
2018-05-29T10:57:15.389Z,30.80
2018-05-29T10:59:41.658Z,30.80
2018-05-29T11:02:07.928Z,30.70
2018-05-29T11:04:34.236Z,30.80
2018-05-29T11:07:00.545Z,30.90
2018-05-29T11:09:26.769Z,31.00
2018-05-29T11:11:53.095Z,31.00
2018-05-29T11:14:19.484Z,31.00
2018-05-29T11:16:45.662Z,31.10
2018-05-29T11:19:11.945Z,31.00
2018-05-29T11:21:38.962Z,31.30
2018-05-29T11:24:05.428Z,31.30
2018-05-29T11:26:34.968Z,31.30
2018-05-29T11:29:02.084Z,31.40
2018-05-29T11:31:28.463Z,31.40
2018-05-29T11:33:54.752Z,31.40
2018-05-29T11:36:21.050Z,31.40
2018-05-29T11:38:47.338Z,31.40
2018-05-29T11:41:13.786Z,31.30
2018-05-29T11:43:40.059Z,31.30
2018-05-29T11:46:06.337Z,31.40
2018-05-29T11:48:33.385Z,31.40
2018-05-29T11:51:00.212Z,31.40
2018-05-29T11:53:26.476Z,31.40
2018-05-29T11:55:52.837Z,31.40
2018-05-29T11:58:19.775Z,31.30
2018-05-29T12:00:46.079Z,31.30
2018-05-29T12:03:12.348Z,31.30
2018-05-29T12:05:38.610Z,31.40
2018-05-29T12:08:05.731Z,31.40
2018-05-29T12:10:32.125Z,31.40
2018-05-29T12:12:59.918Z,31.60
2018-05-29T12:15:26.256Z,31.60
2018-05-29T12:17:52.530Z,31.70
2018-05-29T12:20:19.087Z,31.80
2018-05-29T12:22:45.372Z,31.80
2018-05-29T12:25:12.411Z,31.90
2018-05-29T12:27:38.710Z,31.80
2018-05-29T12:30:04.983Z,31.90
2018-05-29T12:32:31.310Z,31.90
2018-05-29T12:34:57.894Z,31.90
2018-05-29T12:37:24.220Z,31.90
2018-05-29T12:39:50.443Z,31.80
2018-05-29T12:42:16.750Z,31.90
2018-05-29T12:44:43.005Z,31.90
2018-05-29T12:47:09.324Z,31.80
2018-05-29T12:49:35.614Z,31.50
2018-05-29T12:52:01.958Z,31.10
2018-05-29T12:54:28.238Z,30.80
2018-05-29T12:56:54.683Z,30.80
2018-05-29T12:59:21.000Z,31.10
2018-05-29T13:01:47.270Z,31.30
2018-05-29T13:04:13.591Z,31.50
2018-05-29T13:06:39.915Z,31.70
2018-05-29T13:09:06.953Z,31.50
2018-05-29T13:11:33.258Z,31.00
2018-05-29T13:13:59.552Z,30.70
2018-05-29T13:16:25.802Z,30.40
2018-05-29T13:18:52.109Z,30.50
2018-05-29T13:21:18.426Z,30.70
2018-05-29T13:23:44.728Z,31.00
2018-05-29T13:26:11.030Z,31.10
2018-05-29T13:28:37.298Z,31.20
2018-05-29T13:31:03.647Z,31.30
2018-05-29T13:33:30.099Z,31.40
2018-05-29T13:35:56.433Z,31.40
2018-05-29T13:38:22.843Z,31.50
2018-05-29T13:40:49.866Z,31.70
2018-05-29T13:43:16.104Z,31.70
2018-05-29T13:45:42.383Z,31.60
2018-05-29T13:48:08.638Z,31.60
2018-05-29T13:50:35.682Z,31.80
2018-05-29T13:53:02.786Z,31.90
2018-05-29T13:55:29.124Z,31.90
2018-05-29T13:57:55.404Z,32.00
2018-05-29T14:00:21.637Z,32.00
2018-05-29T14:02:47.911Z,32.00
2018-05-29T14:05:14.153Z,32.00
2018-05-29T14:07:41.196Z,32.20
2018-05-29T14:10:07.493Z,32.20
2018-05-29T14:12:33.852Z,32.20
2018-05-29T14:15:00.106Z,32.20
2018-05-29T14:17:26.524Z,32.30
2018-05-29T14:19:52.879Z,32.30
2018-05-29T14:22:20.455Z,32.30
2018-05-29T14:24:46.736Z,32.30
2018-05-29T14:27:12.950Z,32.20
2018-05-29T14:29:39.211Z,32.00
2018-05-29T14:32:05.553Z,32.10
2018-05-29T14:34:32.471Z,32.20
2018-05-29T14:36:58.736Z,32.20
2018-05-29T14:39:24.936Z,32.00
2018-05-29T14:41:51.263Z,31.80
2018-05-29T14:44:18.325Z,31.50
2018-05-29T14:46:44.587Z,31.40
2018-05-29T14:49:10.855Z,31.20
2018-05-29T14:51:37.104Z,31.00
2018-05-29T14:54:04.292Z,30.80
2018-05-29T14:56:30.567Z,30.50
2018-05-29T14:58:57.525Z,30.50
2018-05-29T15:01:23.778Z,30.60
2018-05-29T15:03:50.027Z,30.70
2018-05-29T15:06:16.405Z,30.80
2018-05-29T15:08:42.622Z,30.70
2018-05-29T15:11:08.915Z,30.70
2018-05-29T15:13:35.898Z,30.80
2018-05-29T15:16:02.331Z,30.80
2018-05-29T15:18:28.715Z,30.90
2018-05-29T15:20:55.775Z,31.20
2018-05-29T15:23:22.051Z,31.10
2018-05-29T15:25:49.134Z,31.40
2018-05-29T15:28:16.165Z,31.50
2018-05-29T15:30:42.419Z,31.40
2018-05-29T15:33:09.415Z,31.60
2018-05-29T15:35:35.757Z,31.50
2018-05-29T15:38:02.021Z,31.60
2018-05-29T15:40:28.296Z,31.60
2018-05-29T15:42:54.599Z,31.30
2018-05-29T15:45:21.610Z,30.80
2018-05-29T15:47:47.883Z,30.80
2018-05-29T15:50:14.248Z,30.60
2018-05-29T15:52:40.557Z,30.30
2018-05-29T15:55:07.607Z,29.70
2018-05-29T15:57:34.677Z,29.50
2018-05-29T16:00:01.024Z,29.50
2018-05-29T16:02:28.075Z,29.20
2018-05-29T16:04:54.434Z,29.10
2018-05-29T16:07:20.771Z,29.00
2018-05-29T16:09:47.042Z,28.80
2018-05-29T16:12:13.344Z,28.70
2018-05-29T16:14:39.724Z,28.60
2018-05-29T16:17:06.056Z,28.50
2018-05-29T16:19:32.334Z,28.40
2018-05-29T16:21:58.627Z,28.30
2018-05-29T16:24:25.667Z,28.20
2018-05-29T16:26:51.974Z,28.20
2018-05-29T16:29:18.327Z,28.20
2018-05-29T16:31:44.612Z,28.10
2018-05-29T16:34:12.647Z,28.10
2018-05-29T16:36:38.869Z,28.10
2018-05-29T16:39:05.192Z,28.00
2018-05-29T16:41:31.496Z,28.00
2018-05-29T16:43:57.880Z,28.00
2018-05-29T16:46:24.206Z,28.00
2018-05-29T16:48:51.272Z,28.00
2018-05-29T16:51:18.261Z,28.00
2018-05-29T16:53:44.614Z,28.00
2018-05-29T16:56:10.862Z,28.00
2018-05-29T16:58:37.137Z,28.00
2018-05-29T17:01:04.150Z,27.90
2018-05-29T17:03:30.370Z,28.00
2018-05-29T17:08:31.204Z,27.80
2018-05-29T17:10:57.462Z,27.80
2018-05-29T17:13:24.505Z,27.60
2018-05-29T17:15:50.798Z,27.60
2018-05-29T17:18:17.042Z,27.40
2018-05-29T17:20:43.370Z,27.20
2018-05-29T17:23:09.650Z,27.10
2018-05-29T17:25:35.958Z,27.00
2018-05-29T17:28:02.248Z,26.90
2018-05-29T17:30:28.569Z,26.90
2018-05-29T17:32:55.602Z,26.70
2018-05-29T17:35:21.898Z,26.70
2018-05-29T17:37:48.139Z,26.60
2018-05-29T17:40:14.396Z,26.60
2018-05-29T17:42:40.763Z,26.60
2018-05-29T17:45:07.128Z,26.50
2018-05-29T17:47:33.374Z,26.40
2018-05-29T17:50:00.514Z,26.30
2018-05-29T17:52:27.635Z,26.20
2018-05-29T17:54:53.991Z,26.20
2018-05-29T17:57:20.254Z,26.20
2018-05-29T17:59:47.248Z,26.10
2018-05-29T18:02:13.614Z,26.10
2018-05-29T18:04:39.982Z,26.00
2018-05-29T18:07:06.231Z,26.00
2018-05-29T18:09:32.628Z,25.90
2018-05-29T18:11:59.091Z,25.80
2018-05-29T18:14:25.408Z,25.70
2018-05-29T18:16:51.770Z,25.60
2018-05-29T18:19:18.047Z,25.60
2018-05-29T18:21:45.134Z,25.50
2018-05-29T18:24:11.450Z,25.40
2018-05-29T18:26:37.743Z,25.40
2018-05-29T18:29:04.066Z,25.30
2018-05-29T18:31:31.254Z,25.20
2018-05-29T18:33:57.736Z,25.20
2018-05-29T18:36:24.782Z,25.00
2018-05-29T18:38:51.068Z,25.00
2018-05-29T18:41:18.119Z,24.90
2018-05-29T18:43:45.197Z,24.80
2018-05-29T18:46:11.545Z,24.80
2018-05-29T18:48:37.798Z,24.80
2018-05-29T18:51:04.089Z,24.70
2018-05-29T18:53:30.718Z,24.60
2018-05-29T18:55:57.079Z,24.50
2018-05-29T18:58:24.106Z,24.20
2018-05-29T19:00:50.372Z,24.20
2018-05-29T19:03:16.682Z,24.10
2018-05-29T19:05:42.970Z,24.00
2018-05-29T19:08:09.243Z,23.90
2018-05-29T19:10:36.285Z,23.80
2018-05-29T19:13:03.298Z,23.80
2018-05-29T19:15:29.802Z,23.70
2018-05-29T19:17:56.152Z,23.70
2018-05-29T19:20:22.489Z,23.70
2018-05-29T19:22:48.799Z,23.60
2018-05-29T19:25:15.011Z,23.60
2018-05-29T19:27:41.395Z,23.50
2018-05-29T19:30:07.724Z,23.50
2018-05-29T19:32:33.997Z,23.50
2018-05-29T19:35:01.031Z,23.40
2018-05-29T19:37:27.378Z,23.40
2018-05-29T19:39:54.432Z,23.20
2018-05-29T19:42:20.740Z,23.20
2018-05-29T19:44:47.025Z,23.20
2018-05-29T19:47:13.252Z,23.10
2018-05-29T19:49:39.562Z,23.10
2018-05-29T19:52:05.921Z,23.00
2018-05-29T19:54:32.188Z,23.10
2018-05-29T19:56:59.726Z,23.10
2018-05-29T19:59:26.002Z,23.10
2018-05-29T20:01:52.243Z,23.10
2018-05-29T20:04:18.537Z,23.00
2018-05-29T20:06:44.866Z,22.90
2018-05-29T20:09:11.176Z,22.90
2018-05-29T20:11:37.475Z,22.80
2018-05-29T20:14:03.774Z,22.70
2018-05-29T20:16:30.828Z,22.50
2018-05-29T20:18:57.184Z,22.50
2018-05-29T20:21:24.382Z,22.40
2018-05-29T20:23:50.724Z,22.40
2018-05-29T20:26:16.964Z,22.30
2018-05-29T20:28:43.277Z,22.30
2018-05-29T20:31:10.364Z,22.10
2018-05-29T20:33:36.709Z,22.10
2018-05-29T20:36:03.050Z,22.00
2018-05-29T20:38:30.366Z,21.90
2018-05-29T20:40:56.650Z,21.90
2018-05-29T20:43:22.959Z,21.80
2018-05-29T20:45:49.988Z,21.60
2018-05-29T20:48:16.284Z,21.60
2018-05-29T20:50:43.281Z,21.40
2018-05-29T20:53:09.580Z,21.40
2018-05-29T20:55:35.936Z,21.30
2018-05-29T20:58:02.181Z,21.20
2018-05-29T21:00:28.514Z,21.20
2018-05-29T21:02:54.805Z,21.10
2018-05-29T21:05:21.136Z,21.10
2018-05-29T21:07:47.428Z,21.20
2018-05-29T21:10:14.524Z,20.90
2018-05-29T21:12:40.764Z,20.90
2018-05-29T21:15:07.087Z,20.90
2018-05-29T21:17:33.348Z,20.80
2018-05-29T21:20:00.978Z,20.80
2018-05-29T21:22:28.219Z,20.80
2018-05-29T21:24:54.538Z,20.80
2018-05-29T21:27:20.812Z,20.80
2018-05-29T21:29:47.201Z,20.80
2018-05-29T21:32:13.493Z,20.70
2018-05-29T21:34:39.861Z,20.70
2018-05-29T21:37:06.262Z,20.70
2018-05-29T21:39:32.588Z,20.80
2018-05-29T21:42:00.519Z,20.90
2018-05-29T21:44:26.960Z,20.80
2018-05-29T21:46:53.465Z,20.70
2018-05-29T21:49:19.944Z,20.50
2018-05-29T21:51:46.865Z,20.30
2018-05-29T21:54:13.252Z,20.10
2018-05-29T21:56:39.678Z,20.10
2018-05-29T21:59:06.161Z,20.10
2018-05-29T22:01:32.613Z,20.00
2018-05-29T22:04:03.616Z,20.00
2018-05-29T22:06:30.232Z,20.00
2018-05-29T22:08:57.904Z,20.00
2018-05-29T22:11:24.305Z,20.00
2018-05-29T22:13:51.016Z,20.10
2018-05-29T22:16:17.430Z,20.20
2018-05-29T22:18:44.577Z,20.20
2018-05-29T22:21:12.152Z,20.10
2018-05-29T22:23:38.585Z,20.20
2018-05-29T22:26:05.139Z,20.10
2018-05-29T22:28:31.941Z,20.10
2018-05-29T22:30:58.409Z,20.10
2018-05-29T22:33:24.836Z,20.20
2018-05-29T22:35:51.625Z,20.20
2018-05-29T22:38:18.069Z,20.30
2018-05-29T22:40:44.524Z,20.30
2018-05-29T22:43:10.944Z,20.30
2018-05-29T22:45:37.352Z,20.40
2018-05-29T22:48:04.619Z,20.40
2018-05-29T22:50:31.866Z,20.40
2018-05-29T22:52:58.364Z,20.40
2018-05-29T22:55:24.761Z,20.40
2018-05-29T22:57:51.094Z,20.40
2018-05-29T23:00:17.557Z,20.30
2018-05-29T23:02:43.904Z,20.30
2018-05-29T23:05:10.961Z,20.20
2018-05-29T23:07:37.337Z,20.20
2018-05-29T23:10:03.736Z,20.10
2018-05-29T23:12:30.152Z,20.00
2018-05-29T23:14:56.536Z,20.10
2018-05-29T23:17:23.664Z,20.10
2018-05-29T23:19:50.041Z,20.10
2018-05-29T23:22:16.405Z,20.20
2018-05-29T23:24:43.551Z,20.10
2018-05-29T23:27:13.525Z,20.00
2018-05-29T23:29:39.847Z,20.00
2018-05-29T23:32:06.216Z,19.80
2018-05-29T23:34:32.544Z,19.80
2018-05-29T23:36:58.981Z,19.80
2018-05-29T23:39:25.333Z,19.90
2018-05-29T23:41:51.777Z,20.00
2018-05-29T23:44:18.234Z,20.00
2018-05-29T23:46:44.637Z,20.00
2018-05-29T23:49:13.076Z,19.90
2018-05-29T23:51:39.421Z,19.90
2018-05-29T23:54:05.858Z,19.70
2018-05-29T23:56:32.272Z,19.70
2018-05-29T23:58:59.424Z,19.50
